sensor_id;sensor_type;location;lat;lon;timestamp;P1;durP1;ratioP1;P2;durP2;ratioP2
55720;SDS011;41626;53.098;6.168;2023-05-10T00:00:23;8.60;;;7.53;;
55720;SDS011;41626;53.098;6.168;2023-05-10T00:02:49;7.68;;;7.07;;
55720;SDS011;41626;53.098;6.168;2023-05-10T00:05:15;9.47;;;8.57;;
55720;SDS011;41626;53.098;6.168;2023-05-10T00:07:40;9.07;;;8.27;;
55720;SDS011;41626;53.098;6.168;2023-05-10T00:10:09;11.57;;;10.40;;
55720;SDS011;41626;53.098;6.168;2023-05-10T00:12:35;11.60;;;10.50;;
55720;SDS011;41626;53.098;6.168;2023-05-10T00:15:01;12.73;;;11.52;;
55720;SDS011;41626;53.098;6.168;2023-05-10T00:17:28;14.95;;;13.55;;
55720;SDS011;41626;53.098;6.168;2023-05-10T00:19:53;15.15;;;13.65;;
55720;SDS011;41626;53.098;6.168;2023-05-10T00:22:19;15.95;;;13.90;;
55720;SDS011;41626;53.098;6.168;2023-05-10T00:24:45;15.38;;;13.90;;
55720;SDS011;41626;53.098;6.168;2023-05-10T00:27:11;16.60;;;14.85;;
55720;SDS011;41626;53.098;6.168;2023-05-10T00:29:36;16.92;;;15.23;;
55720;SDS011;41626;53.098;6.168;2023-05-10T00:32:02;13.47;;;12.27;;
55720;SDS011;41626;53.098;6.168;2023-05-10T00:34:28;14.23;;;12.93;;
55720;SDS011;41626;53.098;6.168;2023-05-10T00:36:54;12.90;;;11.57;;
55720;SDS011;41626;53.098;6.168;2023-05-10T00:39:19;11.53;;;10.33;;
55720;SDS011;41626;53.098;6.168;2023-05-10T00:41:45;13.48;;;12.27;;
55720;SDS011;41626;53.098;6.168;2023-05-10T00:44:11;13.05;;;11.68;;
55720;SDS011;41626;53.098;6.168;2023-05-10T00:46:36;12.52;;;11.43;;
55720;SDS011;41626;53.098;6.168;2023-05-10T00:49:02;12.73;;;11.43;;
55720;SDS011;41626;53.098;6.168;2023-05-10T00:51:28;12.13;;;11.03;;
55720;SDS011;41626;53.098;6.168;2023-05-10T00:53:53;10.87;;;9.87;;
55720;SDS011;41626;53.098;6.168;2023-05-10T00:56:21;12.02;;;10.93;;
55720;SDS011;41626;53.098;6.168;2023-05-10T00:58:48;13.85;;;11.73;;
55720;SDS011;41626;53.098;6.168;2023-05-10T01:01:14;11.82;;;10.73;;
55720;SDS011;41626;53.098;6.168;2023-05-10T01:03:40;11.07;;;10.18;;
55720;SDS011;41626;53.098;6.168;2023-05-10T01:06:06;11.13;;;10.13;;
55720;SDS011;41626;53.098;6.168;2023-05-10T01:08:32;9.95;;;9.15;;
55720;SDS011;41626;53.098;6.168;2023-05-10T01:10:58;10.65;;;9.55;;
55720;SDS011;41626;53.098;6.168;2023-05-10T01:13:31;10.60;;;9.60;;
55720;SDS011;41626;53.098;6.168;2023-05-10T01:16:00;13.40;;;10.20;;
55720;SDS011;41626;53.098;6.168;2023-05-10T01:18:33;12.23;;;11.02;;
55720;SDS011;41626;53.098;6.168;2023-05-10T01:26:49;11.70;;;10.50;;
55720;SDS011;41626;53.098;6.168;2023-05-10T01:35:03;11.95;;;10.18;;
55720;SDS011;41626;53.098;6.168;2023-05-10T01:43:19;18.48;;;13.05;;
55720;SDS011;41626;53.098;6.168;2023-05-10T01:48:24;22.70;;;15.23;;
55720;SDS011;41626;53.098;6.168;2023-05-10T01:50:52;23.95;;;16.63;;
55720;SDS011;41626;53.098;6.168;2023-05-10T01:53:20;27.33;;;16.10;;
55720;SDS011;41626;53.098;6.168;2023-05-10T01:55:52;30.17;;;19.13;;
55720;SDS011;41626;53.098;6.168;2023-05-10T01:58:21;28.40;;;18.40;;
55720;SDS011;41626;53.098;6.168;2023-05-10T02:00:52;36.90;;;21.40;;
55720;SDS011;41626;53.098;6.168;2023-05-10T02:03:20;29.05;;;20.33;;
55720;SDS011;41626;53.098;6.168;2023-05-10T02:05:48;36.17;;;20.63;;
55720;SDS011;41626;53.098;6.168;2023-05-10T02:08:15;39.30;;;22.13;;
55720;SDS011;41626;53.098;6.168;2023-05-10T02:10:43;34.30;;;21.63;;
55720;SDS011;41626;53.098;6.168;2023-05-10T02:13:11;34.85;;;22.60;;
55720;SDS011;41626;53.098;6.168;2023-05-10T02:15:39;28.33;;;21.47;;
55720;SDS011;41626;53.098;6.168;2023-05-10T02:18:06;29.08;;;21.27;;
55720;SDS011;41626;53.098;6.168;2023-05-10T02:20:32;27.70;;;21.40;;
55720;SDS011;41626;53.098;6.168;2023-05-10T02:22:59;28.25;;;20.92;;
55720;SDS011;41626;53.098;6.168;2023-05-10T02:25:28;29.20;;;21.83;;
55720;SDS011;41626;53.098;6.168;2023-05-10T02:27:55;38.25;;;23.67;;
55720;SDS011;41626;53.098;6.168;2023-05-10T02:30:24;33.88;;;23.35;;
55720;SDS011;41626;53.098;6.168;2023-05-10T02:32:51;36.17;;;23.73;;
55720;SDS011;41626;53.098;6.168;2023-05-10T02:35:17;29.67;;;21.95;;
55720;SDS011;41626;53.098;6.168;2023-05-10T02:37:44;33.70;;;22.95;;
55720;SDS011;41626;53.098;6.168;2023-05-10T02:40:11;30.80;;;22.40;;
55720;SDS011;41626;53.098;6.168;2023-05-10T02:42:39;30.80;;;22.85;;
55720;SDS011;41626;53.098;6.168;2023-05-10T02:45:08;26.40;;;20.58;;
55720;SDS011;41626;53.098;6.168;2023-05-10T02:47:37;32.50;;;23.23;;
55720;SDS011;41626;53.098;6.168;2023-05-10T02:50:03;29.05;;;21.98;;
55720;SDS011;41626;53.098;6.168;2023-05-10T02:52:29;31.58;;;20.92;;
55720;SDS011;41626;53.098;6.168;2023-05-10T02:55:04;27.77;;;20.70;;
55720;SDS011;41626;53.098;6.168;2023-05-10T02:57:34;31.20;;;20.60;;
55720;SDS011;41626;53.098;6.168;2023-05-10T03:00:03;26.90;;;18.90;;
55720;SDS011;41626;53.098;6.168;2023-05-10T03:02:29;27.70;;;19.20;;
55720;SDS011;41626;53.098;6.168;2023-05-10T03:04:56;24.90;;;19.35;;
55720;SDS011;41626;53.098;6.168;2023-05-10T03:07:21;27.92;;;20.90;;
55720;SDS011;41626;53.098;6.168;2023-05-10T03:09:48;25.98;;;19.05;;
55720;SDS011;41626;53.098;6.168;2023-05-10T03:15:10;26.58;;;18.80;;
55720;SDS011;41626;53.098;6.168;2023-05-10T03:17:57;21.73;;;16.98;;
55720;SDS011;41626;53.098;6.168;2023-05-10T03:20:47;20.80;;;16.77;;
55720;SDS011;41626;53.098;6.168;2023-05-10T03:25:51;24.35;;;16.83;;
55720;SDS011;41626;53.098;6.168;2023-05-10T03:28:18;22.83;;;17.17;;
55720;SDS011;41626;53.098;6.168;2023-05-10T03:30:45;21.80;;;17.30;;
55720;SDS011;41626;53.098;6.168;2023-05-10T03:33:12;18.33;;;15.80;;
55720;SDS011;41626;53.098;6.168;2023-05-10T03:35:38;21.55;;;16.17;;
55720;SDS011;41626;53.098;6.168;2023-05-10T03:38:04;19.13;;;15.02;;
55720;SDS011;41626;53.098;6.168;2023-05-10T03:40:29;19.92;;;15.63;;
55720;SDS011;41626;53.098;6.168;2023-05-10T03:42:57;22.00;;;15.95;;
55720;SDS011;41626;53.098;6.168;2023-05-10T03:45:26;18.05;;;14.40;;
55720;SDS011;41626;53.098;6.168;2023-05-10T03:47:52;18.35;;;15.43;;
55720;SDS011;41626;53.098;6.168;2023-05-10T03:50:17;20.67;;;15.80;;
55720;SDS011;41626;53.098;6.168;2023-05-10T03:52:43;18.43;;;15.57;;
55720;SDS011;41626;53.098;6.168;2023-05-10T03:55:09;22.07;;;16.50;;
55720;SDS011;41626;53.098;6.168;2023-05-10T03:57:35;19.42;;;17.08;;
55720;SDS011;41626;53.098;6.168;2023-05-10T04:00:01;17.73;;;15.17;;
55720;SDS011;41626;53.098;6.168;2023-05-10T04:02:27;18.08;;;16.27;;
55720;SDS011;41626;53.098;6.168;2023-05-10T04:04:54;16.93;;;15.10;;
55720;SDS011;41626;53.098;6.168;2023-05-10T04:07:20;19.23;;;16.83;;
55720;SDS011;41626;53.098;6.168;2023-05-10T04:09:46;17.97;;;16.03;;
55720;SDS011;41626;53.098;6.168;2023-05-10T04:12:12;18.17;;;15.93;;
55720;SDS011;41626;53.098;6.168;2023-05-10T04:14:37;17.75;;;14.75;;
55720;SDS011;41626;53.098;6.168;2023-05-10T04:17:03;14.65;;;13.15;;
55720;SDS011;41626;53.098;6.168;2023-05-10T04:19:32;13.65;;;12.25;;
55720;SDS011;41626;53.098;6.168;2023-05-10T04:21:58;12.90;;;11.73;;
55720;SDS011;41626;53.098;6.168;2023-05-10T04:24:23;11.30;;;10.30;;
55720;SDS011;41626;53.098;6.168;2023-05-10T04:26:49;11.85;;;10.63;;
55720;SDS011;41626;53.098;6.168;2023-05-10T04:29:15;10.57;;;9.63;;
55720;SDS011;41626;53.098;6.168;2023-05-10T04:31:41;8.60;;;7.80;;
55720;SDS011;41626;53.098;6.168;2023-05-10T04:34:07;4.97;;;4.53;;
55720;SDS011;41626;53.098;6.168;2023-05-10T04:36:32;2.60;;;2.28;;
55720;SDS011;41626;53.098;6.168;2023-05-10T04:39:00;3.05;;;1.45;;
55720;SDS011;41626;53.098;6.168;2023-05-10T04:41:27;1.75;;;1.65;;
55720;SDS011;41626;53.098;6.168;2023-05-10T04:43:53;4.00;;;2.28;;
55720;SDS011;41626;53.098;6.168;2023-05-10T04:46:19;2.10;;;1.90;;
55720;SDS011;41626;53.098;6.168;2023-05-10T04:48:44;2.05;;;1.80;;
55720;SDS011;41626;53.098;6.168;2023-05-10T04:51:10;1.47;;;1.37;;
55720;SDS011;41626;53.098;6.168;2023-05-10T04:53:36;0.90;;;0.90;;
55720;SDS011;41626;53.098;6.168;2023-05-10T04:56:02;2.20;;;0.50;;
55720;SDS011;41626;53.098;6.168;2023-05-10T04:58:28;0.40;;;0.40;;
55720;SDS011;41626;53.098;6.168;2023-05-10T05:00:53;0.40;;;0.30;;
55720;SDS011;41626;53.098;6.168;2023-05-10T05:03:19;0.40;;;0.30;;
55720;SDS011;41626;53.098;6.168;2023-05-10T05:05:44;0.70;;;0.30;;
55720;SDS011;41626;53.098;6.168;2023-05-10T05:08:10;0.47;;;0.30;;
55720;SDS011;41626;53.098;6.168;2023-05-10T05:10:36;1.50;;;0.30;;
55720;SDS011;41626;53.098;6.168;2023-05-10T05:13:01;0.37;;;0.37;;
55720;SDS011;41626;53.098;6.168;2023-05-10T05:15:27;1.90;;;0.30;;
55720;SDS011;41626;53.098;6.168;2023-05-10T05:17:53;0.80;;;0.30;;
55720;SDS011;41626;53.098;6.168;2023-05-10T05:20:18;2.40;;;0.65;;
55720;SDS011;41626;53.098;6.168;2023-05-10T05:22:44;0.50;;;0.40;;
55720;SDS011;41626;53.098;6.168;2023-05-10T05:25:10;1.10;;;0.60;;
55720;SDS011;41626;53.098;6.168;2023-05-10T05:27:36;0.50;;;0.50;;
55720;SDS011;41626;53.098;6.168;2023-05-10T05:30:02;1.63;;;0.40;;
55720;SDS011;41626;53.098;6.168;2023-05-10T05:32:29;1.35;;;0.50;;
55720;SDS011;41626;53.098;6.168;2023-05-10T05:34:55;1.67;;;0.50;;
55720;SDS011;41626;53.098;6.168;2023-05-10T05:37:21;1.83;;;0.30;;
55720;SDS011;41626;53.098;6.168;2023-05-10T05:39:47;1.92;;;0.40;;
55720;SDS011;41626;53.098;6.168;2023-05-10T05:42:13;0.52;;;0.40;;
55720;SDS011;41626;53.098;6.168;2023-05-10T05:44:41;0.40;;;0.30;;
55720;SDS011;41626;53.098;6.168;2023-05-10T05:47:07;1.48;;;0.40;;
55720;SDS011;41626;53.098;6.168;2023-05-10T05:49:33;0.60;;;0.40;;
55720;SDS011;41626;53.098;6.168;2023-05-10T05:51:59;0.95;;;0.50;;
55720;SDS011;41626;53.098;6.168;2023-05-10T05:54:28;1.27;;;0.38;;
55720;SDS011;41626;53.098;6.168;2023-05-10T05:56:57;0.77;;;0.77;;
55720;SDS011;41626;53.098;6.168;2023-05-10T05:59:24;1.02;;;0.50;;
55720;SDS011;41626;53.098;6.168;2023-05-10T06:01:49;0.70;;;0.50;;
55720;SDS011;41626;53.098;6.168;2023-05-10T06:04:15;1.42;;;0.47;;
55720;SDS011;41626;53.098;6.168;2023-05-10T06:06:42;0.88;;;0.35;;
55720;SDS011;41626;53.098;6.168;2023-05-10T06:09:08;1.85;;;0.70;;
55720;SDS011;41626;53.098;6.168;2023-05-10T06:11:34;0.90;;;0.85;;
55720;SDS011;41626;53.098;6.168;2023-05-10T06:14:00;1.10;;;1.00;;
55720;SDS011;41626;53.098;6.168;2023-05-10T06:16:26;0.80;;;0.80;;
55720;SDS011;41626;53.098;6.168;2023-05-10T06:18:52;1.98;;;1.33;;
55720;SDS011;41626;53.098;6.168;2023-05-10T06:21:18;0.93;;;0.93;;
55720;SDS011;41626;53.098;6.168;2023-05-10T06:23:44;1.27;;;1.17;;
55720;SDS011;41626;53.098;6.168;2023-05-10T06:26:10;1.30;;;1.20;;
55720;SDS011;41626;53.098;6.168;2023-05-10T06:28:35;1.58;;;1.48;;
55720;SDS011;41626;53.098;6.168;2023-05-10T06:31:03;1.60;;;1.50;;
55720;SDS011;41626;53.098;6.168;2023-05-10T06:33:29;1.80;;;1.70;;
55720;SDS011;41626;53.098;6.168;2023-05-10T06:35:55;1.83;;;1.52;;
55720;SDS011;41626;53.098;6.168;2023-05-10T06:38:21;2.17;;;1.80;;
55720;SDS011;41626;53.098;6.168;2023-05-10T06:40:47;1.45;;;1.33;;
55720;SDS011;41626;53.098;6.168;2023-05-10T06:43:12;2.10;;;1.90;;
55720;SDS011;41626;53.098;6.168;2023-05-10T06:45:38;5.00;;;2.45;;
55720;SDS011;41626;53.098;6.168;2023-05-10T06:48:04;1.67;;;1.50;;
55720;SDS011;41626;53.098;6.168;2023-05-10T06:50:30;1.60;;;1.50;;
55720;SDS011;41626;53.098;6.168;2023-05-10T06:52:56;1.90;;;1.73;;
55720;SDS011;41626;53.098;6.168;2023-05-10T06:55:21;3.00;;;2.30;;
55720;SDS011;41626;53.098;6.168;2023-05-10T06:57:47;1.40;;;1.30;;
55720;SDS011;41626;53.098;6.168;2023-05-10T07:00:13;1.73;;;1.40;;
55720;SDS011;41626;53.098;6.168;2023-05-10T07:02:39;1.40;;;1.30;;
55720;SDS011;41626;53.098;6.168;2023-05-10T07:05:05;1.70;;;1.60;;
55720;SDS011;41626;53.098;6.168;2023-05-10T07:07:31;2.08;;;1.33;;
55720;SDS011;41626;53.098;6.168;2023-05-10T07:09:57;2.63;;;1.60;;
55720;SDS011;41626;53.098;6.168;2023-05-10T07:12:23;2.47;;;1.60;;
55720;SDS011;41626;53.098;6.168;2023-05-10T07:14:49;2.17;;;1.27;;
55720;SDS011;41626;53.098;6.168;2023-05-10T07:17:15;3.00;;;1.33;;
55720;SDS011;41626;53.098;6.168;2023-05-10T07:19:41;2.60;;;1.17;;
55720;SDS011;41626;53.098;6.168;2023-05-10T07:22:06;1.27;;;1.10;;
55720;SDS011;41626;53.098;6.168;2023-05-10T07:24:32;2.15;;;1.10;;
55720;SDS011;41626;53.098;6.168;2023-05-10T07:26:58;1.27;;;1.17;;
55720;SDS011;41626;53.098;6.168;2023-05-10T07:29:24;3.17;;;1.50;;
55720;SDS011;41626;53.098;6.168;2023-05-10T07:31:50;7.20;;;1.60;;
55720;SDS011;41626;53.098;6.168;2023-05-10T07:34:16;1.90;;;1.80;;
55720;SDS011;41626;53.098;6.168;2023-05-10T07:36:41;2.40;;;1.60;;
55720;SDS011;41626;53.098;6.168;2023-05-10T07:39:07;1.55;;;1.30;;
55720;SDS011;41626;53.098;6.168;2023-05-10T07:41:33;1.30;;;1.20;;
55720;SDS011;41626;53.098;6.168;2023-05-10T07:43:58;2.33;;;1.80;;
55720;SDS011;41626;53.098;6.168;2023-05-10T07:46:24;1.70;;;1.40;;
55720;SDS011;41626;53.098;6.168;2023-05-10T07:48:50;2.33;;;1.30;;
55720;SDS011;41626;53.098;6.168;2023-05-10T07:51:15;2.00;;;1.60;;
55720;SDS011;41626;53.098;6.168;2023-05-10T07:53:41;2.35;;;1.63;;
55720;SDS011;41626;53.098;6.168;2023-05-10T07:56:23;3.40;;;2.38;;
55720;SDS011;41626;53.098;6.168;2023-05-10T07:58:51;3.80;;;3.28;;
55720;SDS011;41626;53.098;6.168;2023-05-10T08:01:17;4.38;;;3.15;;
55720;SDS011;41626;53.098;6.168;2023-05-10T08:03:43;4.25;;;3.03;;
55720;SDS011;41626;53.098;6.168;2023-05-10T08:06:09;4.33;;;3.70;;
55720;SDS011;41626;53.098;6.168;2023-05-10T08:08:35;7.00;;;4.60;;
55720;SDS011;41626;53.098;6.168;2023-05-10T08:11:01;6.20;;;4.43;;
55720;SDS011;41626;53.098;6.168;2023-05-10T08:13:26;7.70;;;4.60;;
55720;SDS011;41626;53.098;6.168;2023-05-10T08:15:52;6.27;;;4.73;;
55720;SDS011;41626;53.098;6.168;2023-05-10T08:18:18;6.72;;;4.55;;
55720;SDS011;41626;53.098;6.168;2023-05-10T08:20:44;6.05;;;5.45;;
55720;SDS011;41626;53.098;6.168;2023-05-10T08:23:11;6.17;;;5.43;;
55720;SDS011;41626;53.098;6.168;2023-05-10T08:25:37;4.90;;;4.30;;
55720;SDS011;41626;53.098;6.168;2023-05-10T08:28:03;5.18;;;4.50;;
55720;SDS011;41626;53.098;6.168;2023-05-10T08:30:29;6.40;;;4.30;;
55720;SDS011;41626;53.098;6.168;2023-05-10T08:32:55;4.45;;;4.03;;
55720;SDS011;41626;53.098;6.168;2023-05-10T08:35:20;5.23;;;4.73;;
55720;SDS011;41626;53.098;6.168;2023-05-10T08:37:46;6.17;;;5.33;;
55720;SDS011;41626;53.098;6.168;2023-05-10T08:40:12;6.75;;;5.55;;
55720;SDS011;41626;53.098;6.168;2023-05-10T08:42:39;7.25;;;5.55;;
55720;SDS011;41626;53.098;6.168;2023-05-10T08:45:08;5.85;;;5.32;;
55720;SDS011;41626;53.098;6.168;2023-05-10T08:47:36;9.48;;;5.70;;
55720;SDS011;41626;53.098;6.168;2023-05-10T08:50:03;7.93;;;5.90;;
55720;SDS011;41626;53.098;6.168;2023-05-10T08:52:29;6.35;;;5.30;;
55720;SDS011;41626;53.098;6.168;2023-05-10T08:54:56;7.53;;;5.47;;
55720;SDS011;41626;53.098;6.168;2023-05-10T08:57:22;7.87;;;4.80;;
55720;SDS011;41626;53.098;6.168;2023-05-10T08:59:47;6.60;;;5.55;;
55720;SDS011;41626;53.098;6.168;2023-05-10T09:02:13;8.02;;;4.97;;
55720;SDS011;41626;53.098;6.168;2023-05-10T09:04:39;6.78;;;4.63;;
55720;SDS011;41626;53.098;6.168;2023-05-10T09:07:06;9.27;;;5.53;;
55720;SDS011;41626;53.098;6.168;2023-05-10T09:09:32;6.57;;;5.25;;
55720;SDS011;41626;53.098;6.168;2023-05-10T09:11:58;5.40;;;4.88;;
55720;SDS011;41626;53.098;6.168;2023-05-10T09:14:25;5.80;;;5.30;;
55720;SDS011;41626;53.098;6.168;2023-05-10T09:16:51;6.78;;;5.78;;
55720;SDS011;41626;53.098;6.168;2023-05-10T09:19:18;6.28;;;5.05;;
55720;SDS011;41626;53.098;6.168;2023-05-10T09:21:44;5.65;;;4.97;;
55720;SDS011;41626;53.098;6.168;2023-05-10T09:24:10;8.80;;;6.40;;
55720;SDS011;41626;53.098;6.168;2023-05-10T09:26:43;6.03;;;5.43;;
55720;SDS011;41626;53.098;6.168;2023-05-10T09:29:12;6.70;;;5.13;;
55720;SDS011;41626;53.098;6.168;2023-05-10T09:31:46;6.60;;;5.95;;
55720;SDS011;41626;53.098;6.168;2023-05-10T09:34:19;6.95;;;6.00;;
55720;SDS011;41626;53.098;6.168;2023-05-10T09:36:56;8.60;;;5.85;;
55720;SDS011;41626;53.098;6.168;2023-05-10T09:39:32;6.55;;;5.80;;
55720;SDS011;41626;53.098;6.168;2023-05-10T09:42:02;9.02;;;6.13;;
55720;SDS011;41626;53.098;6.168;2023-05-10T09:44:32;7.55;;;5.68;;
55720;SDS011;41626;53.098;6.168;2023-05-10T09:46:59;6.05;;;5.45;;
55720;SDS011;41626;53.098;6.168;2023-05-10T09:49:26;6.30;;;5.68;;
55720;SDS011;41626;53.098;6.168;2023-05-10T09:52:01;6.40;;;5.80;;
55720;SDS011;41626;53.098;6.168;2023-05-10T09:54:29;5.60;;;4.97;;
55720;SDS011;41626;53.098;6.168;2023-05-10T09:56:54;6.90;;;5.90;;
55720;SDS011;41626;53.098;6.168;2023-05-10T09:59:20;6.93;;;4.90;;
55720;SDS011;41626;53.098;6.168;2023-05-10T10:01:49;8.70;;;5.83;;
55720;SDS011;41626;53.098;6.168;2023-05-10T10:04:15;6.97;;;5.88;;
55720;SDS011;41626;53.098;6.168;2023-05-10T10:06:41;5.43;;;4.85;;
55720;SDS011;41626;53.098;6.168;2023-05-10T10:09:07;6.70;;;4.70;;
55720;SDS011;41626;53.098;6.168;2023-05-10T10:11:34;6.47;;;5.70;;
55720;SDS011;41626;53.098;6.168;2023-05-10T10:14:00;5.72;;;4.55;;
55720;SDS011;41626;53.098;6.168;2023-05-10T10:16:27;6.57;;;5.75;;
55720;SDS011;41626;53.098;6.168;2023-05-10T10:18:54;6.35;;;5.60;;
55720;SDS011;41626;53.098;6.168;2023-05-10T10:21:20;6.53;;;5.85;;
55720;SDS011;41626;53.098;6.168;2023-05-10T10:23:47;6.55;;;5.75;;
55720;SDS011;41626;53.098;6.168;2023-05-10T10:26:13;8.23;;;6.77;;
55720;SDS011;41626;53.098;6.168;2023-05-10T10:28:51;8.02;;;6.70;;
55720;SDS011;41626;53.098;6.168;2023-05-10T10:32:02;6.85;;;6.15;;
55720;SDS011;41626;53.098;6.168;2023-05-10T10:34:36;7.32;;;6.10;;
55720;SDS011;41626;53.098;6.168;2023-05-10T10:37:05;8.45;;;6.82;;
55720;SDS011;41626;53.098;6.168;2023-05-10T10:39:31;7.07;;;6.03;;
55720;SDS011;41626;53.098;6.168;2023-05-10T10:41:58;9.13;;;7.73;;
55720;SDS011;41626;53.098;6.168;2023-05-10T10:44:24;8.35;;;7.50;;
55720;SDS011;41626;53.098;6.168;2023-05-10T10:47:02;9.15;;;7.55;;
55720;SDS011;41626;53.098;6.168;2023-05-10T10:49:30;8.68;;;7.88;;
55720;SDS011;41626;53.098;6.168;2023-05-10T10:54:51;8.32;;;7.43;;
55720;SDS011;41626;53.098;6.168;2023-05-10T10:57:24;9.32;;;8.35;;
55720;SDS011;41626;53.098;6.168;2023-05-10T10:59:51;9.05;;;7.88;;
55720;SDS011;41626;53.098;6.168;2023-05-10T11:07:58;10.00;;;7.87;;
55720;SDS011;41626;53.098;6.168;2023-05-10T11:10:25;8.80;;;7.97;;
55720;SDS011;41626;53.098;6.168;2023-05-10T11:12:52;7.78;;;6.50;;
55720;SDS011;41626;53.098;6.168;2023-05-10T11:15:19;7.63;;;6.72;;
55720;SDS011;41626;53.098;6.168;2023-05-10T11:17:45;6.38;;;5.60;;
55720;SDS011;41626;53.098;6.168;2023-05-10T11:20:17;6.05;;;5.22;;
55720;SDS011;41626;53.098;6.168;2023-05-10T11:22:51;5.70;;;5.07;;
55720;SDS011;41626;53.098;6.168;2023-05-10T11:25:18;5.40;;;4.90;;
55720;SDS011;41626;53.098;6.168;2023-05-10T11:27:44;7.50;;;6.30;;
55720;SDS011;41626;53.098;6.168;2023-05-10T11:30:12;6.78;;;4.70;;
55720;SDS011;41626;53.098;6.168;2023-05-10T11:32:39;7.03;;;4.90;;
55720;SDS011;41626;53.098;6.168;2023-05-10T11:35:06;6.23;;;5.63;;
55720;SDS011;41626;53.098;6.168;2023-05-10T11:37:36;7.50;;;5.43;;
55720;SDS011;41626;53.098;6.168;2023-05-10T11:40:07;7.50;;;6.20;;
55720;SDS011;41626;53.098;6.168;2023-05-10T11:42:35;9.93;;;7.05;;
55720;SDS011;41626;53.098;6.168;2023-05-10T11:45:02;7.95;;;7.03;;
55720;SDS011;41626;53.098;6.168;2023-05-10T11:47:28;10.32;;;6.65;;
55720;SDS011;41626;53.098;6.168;2023-05-10T11:49:53;10.65;;;7.85;;
55720;SDS011;41626;53.098;6.168;2023-05-10T11:52:19;10.50;;;8.40;;
55720;SDS011;41626;53.098;6.168;2023-05-10T11:54:51;8.87;;;8.03;;
55720;SDS011;41626;53.098;6.168;2023-05-10T11:57:18;8.73;;;7.82;;
55720;SDS011;41626;53.098;6.168;2023-05-10T11:59:45;7.45;;;6.68;;
55720;SDS011;41626;53.098;6.168;2023-05-10T12:02:14;7.03;;;6.32;;
55720;SDS011;41626;53.098;6.168;2023-05-10T12:04:40;9.95;;;7.47;;
55720;SDS011;41626;53.098;6.168;2023-05-10T12:07:06;9.20;;;7.70;;
55720;SDS011;41626;53.098;6.168;2023-05-10T12:09:32;8.07;;;7.38;;
55720;SDS011;41626;53.098;6.168;2023-05-10T12:11:58;9.00;;;8.05;;
55720;SDS011;41626;53.098;6.168;2023-05-10T12:14:23;10.43;;;8.63;;
55720;SDS011;41626;53.098;6.168;2023-05-10T12:16:49;9.27;;;8.30;;
55720;SDS011;41626;53.098;6.168;2023-05-10T12:19:18;9.43;;;8.52;;
55720;SDS011;41626;53.098;6.168;2023-05-10T12:21:47;8.90;;;8.00;;
55720;SDS011;41626;53.098;6.168;2023-05-10T12:24:13;8.75;;;7.80;;
55720;SDS011;41626;53.098;6.168;2023-05-10T12:26:42;9.48;;;8.50;;
55720;SDS011;41626;53.098;6.168;2023-05-10T12:29:13;10.13;;;9.02;;
55720;SDS011;41626;53.098;6.168;2023-05-10T12:31:52;11.15;;;8.95;;
55720;SDS011;41626;53.098;6.168;2023-05-10T12:34:26;10.07;;;9.18;;
55720;SDS011;41626;53.098;6.168;2023-05-10T12:36:58;8.27;;;7.47;;
55720;SDS011;41626;53.098;6.168;2023-05-10T12:39:24;9.27;;;7.90;;
55720;SDS011;41626;53.098;6.168;2023-05-10T12:41:50;9.63;;;8.48;;
55720;SDS011;41626;53.098;6.168;2023-05-10T12:44:17;9.00;;;8.13;;
55720;SDS011;41626;53.098;6.168;2023-05-10T12:46:43;10.45;;;9.40;;
55720;SDS011;41626;53.098;6.168;2023-05-10T12:49:08;9.20;;;8.13;;
55720;SDS011;41626;53.098;6.168;2023-05-10T12:51:34;11.73;;;8.75;;
55720;SDS011;41626;53.098;6.168;2023-05-10T12:54:00;9.13;;;8.13;;
55720;SDS011;41626;53.098;6.168;2023-05-10T12:56:26;8.23;;;7.43;;
55720;SDS011;41626;53.098;6.168;2023-05-10T12:58:51;9.48;;;6.70;;
55720;SDS011;41626;53.098;6.168;2023-05-10T13:01:17;7.70;;;6.90;;
55720;SDS011;41626;53.098;6.168;2023-05-10T13:03:42;7.47;;;6.77;;
55720;SDS011;41626;53.098;6.168;2023-05-10T13:06:08;6.80;;;6.00;;
55720;SDS011;41626;53.098;6.168;2023-05-10T13:08:34;8.93;;;7.57;;
55720;SDS011;41626;53.098;6.168;2023-05-10T13:11:00;7.63;;;6.83;;
55720;SDS011;41626;53.098;6.168;2023-05-10T13:13:27;8.77;;;6.60;;
55720;SDS011;41626;53.098;6.168;2023-05-10T13:15:52;6.97;;;6.28;;
55720;SDS011;41626;53.098;6.168;2023-05-10T13:18:18;6.43;;;5.28;;
55720;SDS011;41626;53.098;6.168;2023-05-10T13:20:44;5.53;;;5.03;;
55720;SDS011;41626;53.098;6.168;2023-05-10T13:23:09;5.53;;;5.00;;
55720;SDS011;41626;53.098;6.168;2023-05-10T13:25:35;4.95;;;4.30;;
55720;SDS011;41626;53.098;6.168;2023-05-10T13:28:01;5.70;;;3.70;;
55720;SDS011;41626;53.098;6.168;2023-05-10T13:30:27;3.65;;;3.22;;
55720;SDS011;41626;53.098;6.168;2023-05-10T13:32:54;4.37;;;3.97;;
55720;SDS011;41626;53.098;6.168;2023-05-10T13:35:19;6.43;;;4.03;;
55720;SDS011;41626;53.098;6.168;2023-05-10T13:37:45;7.50;;;4.65;;
55720;SDS011;41626;53.098;6.168;2023-05-10T13:40:11;5.88;;;3.83;;
55720;SDS011;41626;53.098;6.168;2023-05-10T13:42:37;5.25;;;4.28;;
55720;SDS011;41626;53.098;6.168;2023-05-10T13:45:03;5.38;;;4.13;;
55720;SDS011;41626;53.098;6.168;2023-05-10T13:47:29;5.85;;;5.25;;
55720;SDS011;41626;53.098;6.168;2023-05-10T13:49:55;6.72;;;5.88;;
55720;SDS011;41626;53.098;6.168;2023-05-10T13:52:21;7.10;;;6.40;;
55720;SDS011;41626;53.098;6.168;2023-05-10T13:54:46;8.27;;;6.15;;
55720;SDS011;41626;53.098;6.168;2023-05-10T13:57:12;7.32;;;6.60;;
55720;SDS011;41626;53.098;6.168;2023-05-10T13:59:39;7.28;;;6.57;;
55720;SDS011;41626;53.098;6.168;2023-05-10T14:02:06;8.13;;;5.95;;
55720;SDS011;41626;53.098;6.168;2023-05-10T14:04:32;7.18;;;6.47;;
55720;SDS011;41626;53.098;6.168;2023-05-10T14:07:00;7.22;;;6.53;;
55720;SDS011;41626;53.098;6.168;2023-05-10T14:09:26;9.23;;;7.40;;
55720;SDS011;41626;53.098;6.168;2023-05-10T14:11:51;7.83;;;6.97;;
55720;SDS011;41626;53.098;6.168;2023-05-10T14:14:17;10.85;;;7.00;;
55720;SDS011;41626;53.098;6.168;2023-05-10T14:16:43;7.00;;;6.28;;
55720;SDS011;41626;53.098;6.168;2023-05-10T14:19:10;10.68;;;8.05;;
55720;SDS011;41626;53.098;6.168;2023-05-10T14:21:36;8.82;;;7.78;;
55720;SDS011;41626;53.098;6.168;2023-05-10T14:24:02;7.78;;;6.72;;
55720;SDS011;41626;53.098;6.168;2023-05-10T14:26:28;7.90;;;6.55;;
55720;SDS011;41626;53.098;6.168;2023-05-10T14:28:53;7.55;;;6.15;;
55720;SDS011;41626;53.098;6.168;2023-05-10T14:31:19;6.57;;;5.83;;
55720;SDS011;41626;53.098;6.168;2023-05-10T14:33:45;5.38;;;4.22;;
55720;SDS011;41626;53.098;6.168;2023-05-10T14:36:11;6.70;;;4.70;;
55720;SDS011;41626;53.098;6.168;2023-05-10T14:38:38;9.38;;;4.70;;
55720;SDS011;41626;53.098;6.168;2023-05-10T14:41:04;6.65;;;5.30;;
55720;SDS011;41626;53.098;6.168;2023-05-10T14:43:30;7.40;;;4.47;;
55720;SDS011;41626;53.098;6.168;2023-05-10T14:45:56;6.22;;;4.82;;
55720;SDS011;41626;53.098;6.168;2023-05-10T14:48:22;6.20;;;4.97;;
55720;SDS011;41626;53.098;6.168;2023-05-10T14:50:47;6.13;;;4.53;;
55720;SDS011;41626;53.098;6.168;2023-05-10T14:53:14;4.72;;;4.07;;
55720;SDS011;41626;53.098;6.168;2023-05-10T14:55:40;4.60;;;3.80;;
55720;SDS011;41626;53.098;6.168;2023-05-10T14:58:06;6.10;;;4.35;;
55720;SDS011;41626;53.098;6.168;2023-05-10T15:00:31;11.43;;;4.30;;
55720;SDS011;41626;53.098;6.168;2023-05-10T15:02:57;4.77;;;3.30;;
55720;SDS011;41626;53.098;6.168;2023-05-10T15:05:23;5.55;;;3.70;;
55720;SDS011;41626;53.098;6.168;2023-05-10T15:07:48;6.47;;;5.43;;
55720;SDS011;41626;53.098;6.168;2023-05-10T15:10:14;7.83;;;6.53;;
55720;SDS011;41626;53.098;6.168;2023-05-10T15:12:40;7.57;;;6.53;;